sensor_id;sensor_type;location;lat;lon;timestamp;pressure;altitude;pressure_sealevel;temperature;humidity
43741;BME280;29352;48.708;9.290;2024-01-15T00:00:18;96801.25;;;-5.10;58.09
43741;BME280;29352;48.708;9.290;2024-01-15T00:02:44;96792.19;;;-5.06;58.11
43741;BME280;29352;48.708;9.290;2024-01-15T00:05:11;96790.66;;;-4.81;57.96
43741;BME280;29352;48.708;9.290;2024-01-15T00:07:36;96789.28;;;-4.76;57.57
43741;BME280;29352;48.708;9.290;2024-01-15T00:10:02;96785.13;;;-4.51;57.21
43741;BME280;29352;48.708;9.290;2024-01-15T00:12:28;96778.09;;;-4.86;57.68
43741;BME280;29352;48.708;9.290;2024-01-15T00:14:53;96774.94;;;-5.07;57.89
43741;BME280;29352;48.708;9.290;2024-01-15T00:17:19;96774.69;;;-4.86;57.70
43741;BME280;29352;48.708;9.290;2024-01-15T00:19:44;96783.47;;;-5.15;58.51
43741;BME280;29352;48.708;9.290;2024-01-15T00:22:10;96782.09;;;-5.19;58.14
43741;BME280;29352;48.708;9.290;2024-01-15T00:24:35;96766.28;;;-4.80;57.64
43741;BME280;29352;48.708;9.290;2024-01-15T00:27:02;96777.53;;;-5.07;58.00
43741;BME280;29352;48.708;9.290;2024-01-15T00:29:27;96774.66;;;-5.32;58.32
43741;BME280;29352;48.708;9.290;2024-01-15T00:31:53;96771.91;;;-5.40;58.77
43741;BME280;29352;48.708;9.290;2024-01-15T00:34:19;96768.84;;;-4.98;57.76
43741;BME280;29352;48.708;9.290;2024-01-15T00:36:44;96771.53;;;-5.45;58.72
43741;BME280;29352;48.708;9.290;2024-01-15T00:39:09;96772.88;;;-5.41;58.53
43741;BME280;29352;48.708;9.290;2024-01-15T00:41:36;96767.63;;;-5.68;58.73
43741;BME280;29352;48.708;9.290;2024-01-15T00:44:02;96769.59;;;-5.43;58.60
43741;BME280;29352;48.708;9.290;2024-01-15T00:46:28;96772.66;;;-5.57;59.15
43741;BME280;29352;48.708;9.290;2024-01-15T00:48:54;96771.28;;;-5.52;58.94
43741;BME280;29352;48.708;9.290;2024-01-15T00:51:21;96776.00;;;-5.28;58.76
43741;BME280;29352;48.708;9.290;2024-01-15T00:53:46;96779.16;;;-5.34;59.06
43741;BME280;29352;48.708;9.290;2024-01-15T00:56:12;96778.84;;;-5.21;58.41
43741;BME280;29352;48.708;9.290;2024-01-15T00:58:39;96784.16;;;-4.95;58.26
43741;BME280;29352;48.708;9.290;2024-01-15T01:01:04;96783.88;;;-4.92;58.44
43741;BME280;29352;48.708;9.290;2024-01-15T01:03:30;96793.09;;;-5.25;58.24
43741;BME280;29352;48.708;9.290;2024-01-15T01:05:55;96791.13;;;-4.86;57.76
43741;BME280;29352;48.708;9.290;2024-01-15T01:08:21;96788.47;;;-5.31;58.28
43741;BME280;29352;48.708;9.290;2024-01-15T01:10:46;96783.50;;;-5.25;58.49
43741;BME280;29352;48.708;9.290;2024-01-15T01:13:12;96775.22;;;-5.38;58.72
43741;BME280;29352;48.708;9.290;2024-01-15T01:15:39;96780.22;;;-5.27;58.89
43741;BME280;29352;48.708;9.290;2024-01-15T01:18:05;96777.63;;;-5.27;59.22
43741;BME280;29352;48.708;9.290;2024-01-15T01:20:31;96774.09;;;-5.73;59.36
43741;BME280;29352;48.708;9.290;2024-01-15T01:22:56;96769.00;;;-5.64;59.69
43741;BME280;29352;48.708;9.290;2024-01-15T01:25:23;96767.75;;;-5.60;59.66
43741;BME280;29352;48.708;9.290;2024-01-15T01:27:49;96767.28;;;-5.83;59.86
43741;BME280;29352;48.708;9.290;2024-01-15T01:30:15;96774.94;;;-5.35;59.48
43741;BME280;29352;48.708;9.290;2024-01-15T01:32:40;96775.94;;;-5.45;59.24
43741;BME280;29352;48.708;9.290;2024-01-15T01:35:06;96777.59;;;-5.17;59.17
43741;BME280;29352;48.708;9.290;2024-01-15T01:37:32;96769.72;;;-4.80;58.34
43741;BME280;29352;48.708;9.290;2024-01-15T01:39:58;96776.47;;;-5.42;59.96
43741;BME280;29352;48.708;9.290;2024-01-15T01:42:23;96769.34;;;-5.12;59.30
43741;BME280;29352;48.708;9.290;2024-01-15T01:44:49;96767.75;;;-5.60;59.94
43741;BME280;29352;48.708;9.290;2024-01-15T01:47:15;96766.84;;;-5.32;59.95
43741;BME280;29352;48.708;9.290;2024-01-15T01:49:43;96768.16;;;-5.18;59.57
43741;BME280;29352;48.708;9.290;2024-01-15T01:52:09;96771.88;;;-5.30;59.71
43741;BME280;29352;48.708;9.290;2024-01-15T01:54:38;96768.91;;;-5.35;59.60
43741;BME280;29352;48.708;9.290;2024-01-15T01:57:07;96771.81;;;-5.11;59.61
43741;BME280;29352;48.708;9.290;2024-01-15T01:59:34;96773.13;;;-5.34;60.09
43741;BME280;29352;48.708;9.290;2024-01-15T02:02:03;96776.22;;;-5.49;60.08
43741;BME280;29352;48.708;9.290;2024-01-15T02:04:30;96769.94;;;-5.18;59.80
43741;BME280;29352;48.708;9.290;2024-01-15T02:06:56;96768.47;;;-5.31;60.07
43741;BME280;29352;48.708;9.290;2024-01-15T02:09:22;96769.09;;;-4.91;59.15
43741;BME280;29352;48.708;9.290;2024-01-15T02:11:47;96759.84;;;-5.04;59.36
43741;BME280;29352;48.708;9.290;2024-01-15T02:14:15;96765.59;;;-5.00;59.34
43741;BME280;29352;48.708;9.290;2024-01-15T02:16:41;96767.00;;;-5.15;59.93
43741;BME280;29352;48.708;9.290;2024-01-15T02:19:15;96770.06;;;-5.20;59.71
43741;BME280;29352;48.708;9.290;2024-01-15T02:21:42;96762.00;;;-5.27;60.10
43741;BME280;29352;48.708;9.290;2024-01-15T02:24:07;96751.34;;;-4.78;59.42
43741;BME280;29352;48.708;9.290;2024-01-15T02:26:33;96753.19;;;-4.88;59.55
43741;BME280;29352;48.708;9.290;2024-01-15T02:29:03;96748.50;;;-4.85;59.45
43741;BME280;29352;48.708;9.290;2024-01-15T02:31:30;96749.25;;;-4.75;59.27
43741;BME280;29352;48.708;9.290;2024-01-15T02:33:55;96749.53;;;-4.78;59.34
43741;BME280;29352;48.708;9.290;2024-01-15T02:36:21;96750.44;;;-4.87;59.73
43741;BME280;29352;48.708;9.290;2024-01-15T02:38:46;96753.81;;;-4.59;59.16
43741;BME280;29352;48.708;9.290;2024-01-15T02:41:12;96755.75;;;-5.06;59.87
43741;BME280;29352;48.708;9.290;2024-01-15T02:43:40;96759.16;;;-5.06;60.09
43741;BME280;29352;48.708;9.290;2024-01-15T02:46:06;96757.50;;;-4.79;59.82
43741;BME280;29352;48.708;9.290;2024-01-15T02:48:32;96751.84;;;-4.92;59.77
43741;BME280;29352;48.708;9.290;2024-01-15T02:51:00;96753.88;;;-4.68;59.65
43741;BME280;29352;48.708;9.290;2024-01-15T02:53:26;96753.88;;;-4.68;59.59
43741;BME280;29352;48.708;9.290;2024-01-15T02:55:53;96749.44;;;-5.04;59.84
43741;BME280;29352;48.708;9.290;2024-01-15T02:58:21;96747.56;;;-4.84;59.76
43741;BME280;29352;48.708;9.290;2024-01-15T03:00:47;96744.31;;;-4.95;60.04
43741;BME280;29352;48.708;9.290;2024-01-15T03:03:13;96744.47;;;-4.97;59.74
43741;BME280;29352;48.708;9.290;2024-01-15T03:05:39;96744.56;;;-4.89;59.51
43741;BME280;29352;48.708;9.290;2024-01-15T03:08:05;96734.31;;;-4.90;59.63
43741;BME280;29352;48.708;9.290;2024-01-15T03:10:31;96732.06;;;-4.85;59.35
43741;BME280;29352;48.708;9.290;2024-01-15T03:12:57;96731.13;;;-4.66;59.00
43741;BME280;29352;48.708;9.290;2024-01-15T03:15:23;96735.06;;;-4.80;59.03
43741;BME280;29352;48.708;9.290;2024-01-15T03:17:48;96727.09;;;-4.61;58.56
43741;BME280;29352;48.708;9.290;2024-01-15T03:20:14;96730.19;;;-4.93;59.23
43741;BME280;29352;48.708;9.290;2024-01-15T03:22:39;96720.94;;;-4.60;58.61
43741;BME280;29352;48.708;9.290;2024-01-15T03:25:06;96723.91;;;-4.55;58.21
43741;BME280;29352;48.708;9.290;2024-01-15T03:27:32;96727.00;;;-4.87;59.36
43741;BME280;29352;48.708;9.290;2024-01-15T03:29:59;96722.94;;;-5.17;60.05
43741;BME280;29352;48.708;9.290;2024-01-15T03:32:25;96724.34;;;-5.23;60.16
43741;BME280;29352;48.708;9.290;2024-01-15T03:34:50;96723.53;;;-5.60;61.17
43741;BME280;29352;48.708;9.290;2024-01-15T03:37:17;96711.31;;;-5.23;60.52
43741;BME280;29352;48.708;9.290;2024-01-15T03:39:43;96711.00;;;-5.37;61.08
43741;BME280;29352;48.708;9.290;2024-01-15T03:42:09;96708.81;;;-5.32;60.50
43741;BME280;29352;48.708;9.290;2024-01-15T03:44:35;96709.03;;;-5.53;61.41
43741;BME280;29352;48.708;9.290;2024-01-15T03:47:01;96707.34;;;-5.17;60.58
43741;BME280;29352;48.708;9.290;2024-01-15T03:49:26;96707.94;;;-5.05;60.28
43741;BME280;29352;48.708;9.290;2024-01-15T03:51:52;96702.72;;;-5.23;60.85
43741;BME280;29352;48.708;9.290;2024-01-15T03:54:22;96707.13;;;-5.61;61.73
43741;BME280;29352;48.708;9.290;2024-01-15T03:56:47;96704.97;;;-5.65;61.53
43741;BME280;29352;48.708;9.290;2024-01-15T03:59:13;96711.53;;;-5.34;61.28
43741;BME280;29352;48.708;9.290;2024-01-15T04:01:38;96700.56;;;-5.28;61.02
43741;BME280;29352;48.708;9.290;2024-01-15T04:04:04;96702.59;;;-5.04;60.98
43741;BME280;29352;48.708;9.290;2024-01-15T04:06:29;96696.47;;;-5.12;60.95
43741;BME280;29352;48.708;9.290;2024-01-15T04:08:56;96690.16;;;-5.28;61.37
43741;BME280;29352;48.708;9.290;2024-01-15T04:11:21;96688.28;;;-5.35;61.50
43741;BME280;29352;48.708;9.290;2024-01-15T04:13:47;96687.69;;;-5.29;61.35
43741;BME280;29352;48.708;9.290;2024-01-15T04:16:13;96689.94;;;-5.16;61.46
43741;BME280;29352;48.708;9.290;2024-01-15T04:18:38;96682.13;;;-5.16;61.25
43741;BME280;29352;48.708;9.290;2024-01-15T04:21:06;96685.72;;;-5.17;61.23
43741;BME280;29352;48.708;9.290;2024-01-15T04:23:33;96681.09;;;-4.88;61.16
43741;BME280;29352;48.708;9.290;2024-01-15T04:25:59;96691.88;;;-5.18;61.43
43741;BME280;29352;48.708;9.290;2024-01-15T04:28:24;96687.66;;;-5.02;60.94
43741;BME280;29352;48.708;9.290;2024-01-15T04:30:50;96692.09;;;-5.12;61.50
43741;BME280;29352;48.708;9.290;2024-01-15T04:33:15;96687.63;;;-5.19;61.40
43741;BME280;29352;48.708;9.290;2024-01-15T04:35:41;96680.00;;;-4.85;61.35
43741;BME280;29352;48.708;9.290;2024-01-15T04:38:07;96676.94;;;-4.81;61.08
43741;BME280;29352;48.708;9.290;2024-01-15T04:40:33;96664.75;;;-4.98;61.43
43741;BME280;29352;48.708;9.290;2024-01-15T04:42:58;96675.53;;;-4.93;61.19
43741;BME280;29352;48.708;9.290;2024-01-15T04:45:24;96677.25;;;-4.66;61.07
43741;BME280;29352;48.708;9.290;2024-01-15T04:47:55;96683.50;;;-4.77;61.46
43741;BME280;29352;48.708;9.290;2024-01-15T04:50:23;96687.06;;;-4.42;60.58
43741;BME280;29352;48.708;9.290;2024-01-15T04:52:49;96685.16;;;-4.76;61.50
43741;BME280;29352;48.708;9.290;2024-01-15T04:55:15;96687.50;;;-5.00;61.79
43741;BME280;29352;48.708;9.290;2024-01-15T04:57:41;96686.09;;;-4.94;61.58
43741;BME280;29352;48.708;9.290;2024-01-15T05:00:07;96679.78;;;-4.92;61.79
43741;BME280;29352;48.708;9.290;2024-01-15T05:02:33;96672.72;;;-5.00;62.45
43741;BME280;29352;48.708;9.290;2024-01-15T05:04:58;96685.66;;;-5.08;62.41
43741;BME280;29352;48.708;9.290;2024-01-15T05:07:25;96686.53;;;-4.99;62.33
43741;BME280;29352;48.708;9.290;2024-01-15T05:09:50;96690.25;;;-5.02;62.44
43741;BME280;29352;48.708;9.290;2024-01-15T05:12:18;96692.03;;;-4.84;61.96
43741;BME280;29352;48.708;9.290;2024-01-15T05:14:43;96682.09;;;-4.89;62.32
43741;BME280;29352;48.708;9.290;2024-01-15T05:17:09;96693.69;;;-5.01;62.31
43741;BME280;29352;48.708;9.290;2024-01-15T05:19:35;96693.09;;;-4.59;61.34
43741;BME280;29352;48.708;9.290;2024-01-15T05:22:01;96689.00;;;-4.80;61.42
43741;BME280;29352;48.708;9.290;2024-01-15T05:24:26;96677.31;;;-5.11;62.46
43741;BME280;29352;48.708;9.290;2024-01-15T05:26:52;96660.16;;;-5.50;63.33
43741;BME280;29352;48.708;9.290;2024-01-15T05:29:19;96670.13;;;-5.73;63.92
43741;BME280;29352;48.708;9.290;2024-01-15T05:31:44;96662.97;;;-5.43;64.01
43741;BME280;29352;48.708;9.290;2024-01-15T05:34:10;96651.34;;;-5.39;63.62
43741;BME280;29352;48.708;9.290;2024-01-15T05:36:36;96652.66;;;-5.53;64.20
43741;BME280;29352;48.708;9.290;2024-01-15T05:39:01;96646.59;;;-5.26;64.12
43741;BME280;29352;48.708;9.290;2024-01-15T05:41:28;96659.53;;;-5.61;64.25
43741;BME280;29352;48.708;9.290;2024-01-15T05:43:53;96656.56;;;-5.66;64.66
43741;BME280;29352;48.708;9.290;2024-01-15T05:46:19;96655.13;;;-5.61;64.70
43741;BME280;29352;48.708;9.290;2024-01-15T05:48:45;96657.97;;;-5.27;63.96
43741;BME280;29352;48.708;9.290;2024-01-15T05:51:11;96650.91;;;-5.16;63.51
43741;BME280;29352;48.708;9.290;2024-01-15T05:53:36;96652.41;;;-4.96;63.04
43741;BME280;29352;48.708;9.290;2024-01-15T05:56:05;96662.19;;;-5.26;63.50
43741;BME280;29352;48.708;9.290;2024-01-15T05:58:31;96657.31;;;-5.29;63.91
43741;BME280;29352;48.708;9.290;2024-01-15T06:00:56;96654.44;;;-4.90;62.71
43741;BME280;29352;48.708;9.290;2024-01-15T06:03:22;96646.09;;;-5.11;63.67
43741;BME280;29352;48.708;9.290;2024-01-15T06:05:47;96650.03;;;-5.07;63.55
43741;BME280;29352;48.708;9.290;2024-01-15T06:08:13;96649.34;;;-4.91;63.24
43741;BME280;29352;48.708;9.290;2024-01-15T06:10:39;96648.69;;;-5.11;63.74
43741;BME280;29352;48.708;9.290;2024-01-15T06:13:05;96649.78;;;-5.32;64.06
43741;BME280;29352;48.708;9.290;2024-01-15T06:15:30;96660.50;;;-5.17;63.19
43741;BME280;29352;48.708;9.290;2024-01-15T06:17:56;96652.88;;;-5.01;62.86
43741;BME280;29352;48.708;9.290;2024-01-15T06:20:21;96653.56;;;-5.26;63.66
43741;BME280;29352;48.708;9.290;2024-01-15T06:22:47;96651.00;;;-5.08;63.55
43741;BME280;29352;48.708;9.290;2024-01-15T06:25:12;96654.25;;;-5.24;63.79
43741;BME280;29352;48.708;9.290;2024-01-15T06:27:38;96652.06;;;-5.01;63.31
43741;BME280;29352;48.708;9.290;2024-01-15T06:30:04;96656.00;;;-4.97;62.99
43741;BME280;29352;48.708;9.290;2024-01-15T06:32:30;96651.72;;;-4.98;63.13
43741;BME280;29352;48.708;9.290;2024-01-15T06:34:57;96645.66;;;-5.07;63.47
43741;BME280;29352;48.708;9.290;2024-01-15T06:37:23;96642.06;;;-4.88;62.83
43741;BME280;29352;48.708;9.290;2024-01-15T06:39:49;96642.94;;;-5.33;64.07
43741;BME280;29352;48.708;9.290;2024-01-15T06:42:14;96635.16;;;-4.79;62.86
43741;BME280;29352;48.708;9.290;2024-01-15T06:44:40;96633.81;;;-4.65;62.90
43741;BME280;29352;48.708;9.290;2024-01-15T06:47:05;96639.34;;;-5.04;62.76
43741;BME280;29352;48.708;9.290;2024-01-15T06:49:31;96626.25;;;-4.77;63.19
43741;BME280;29352;48.708;9.290;2024-01-15T06:51:57;96626.03;;;-5.01;63.71
43741;BME280;29352;48.708;9.290;2024-01-15T06:54:23;96628.03;;;-5.13;63.78
43741;BME280;29352;48.708;9.290;2024-01-15T06:56:49;96618.47;;;-4.68;62.83
43741;BME280;29352;48.708;9.290;2024-01-15T06:59:15;96622.88;;;-4.43;62.14
43741;BME280;29352;48.708;9.290;2024-01-15T07:01:42;96626.25;;;-4.77;62.12
43741;BME280;29352;48.708;9.290;2024-01-15T07:04:10;96618.69;;;-4.62;62.21
43741;BME280;29352;48.708;9.290;2024-01-15T07:06:35;96620.81;;;-5.19;63.17
43741;BME280;29352;48.708;9.290;2024-01-15T07:09:01;96606.25;;;-4.94;62.67
43741;BME280;29352;48.708;9.290;2024-01-15T07:11:26;96600.66;;;-4.99;62.21
43741;BME280;29352;48.708;9.290;2024-01-15T07:13:52;96594.78;;;-4.83;61.71
43741;BME280;29352;48.708;9.290;2024-01-15T07:16:17;96603.75;;;-4.78;61.49
43741;BME280;29352;48.708;9.290;2024-01-15T07:18:43;96599.66;;;-4.36;60.71
43741;BME280;29352;48.708;9.290;2024-01-15T07:21:08;96603.91;;;-4.79;60.88
43741;BME280;29352;48.708;9.290;2024-01-15T07:23:34;96601.41;;;-4.89;60.85
43741;BME280;29352;48.708;9.290;2024-01-15T07:25:59;96610.53;;;-4.41;59.78
43741;BME280;29352;48.708;9.290;2024-01-15T07:28:29;96613.25;;;-4.24;59.57
43741;BME280;29352;48.708;9.290;2024-01-15T07:30:54;96614.63;;;-4.38;59.69
43741;BME280;29352;48.708;9.290;2024-01-15T07:33:19;96624.63;;;-4.25;59.69
43741;BME280;29352;48.708;9.290;2024-01-15T07:35:45;96619.84;;;-4.82;60.62
43741;BME280;29352;48.708;9.290;2024-01-15T07:38:10;96620.91;;;-4.49;60.14
43741;BME280;29352;48.708;9.290;2024-01-15T07:40:37;96619.44;;;-4.52;60.07
43741;BME280;29352;48.708;9.290;2024-01-15T07:43:03;96610.06;;;-4.62;60.06
43741;BME280;29352;48.708;9.290;2024-01-15T07:45:30;96616.91;;;-4.61;60.56
43741;BME280;29352;48.708;9.290;2024-01-15T07:47:58;96615.78;;;-4.33;59.90
43741;BME280;29352;48.708;9.290;2024-01-15T07:50:23;96608.28;;;-4.62;60.20
43741;BME280;29352;48.708;9.290;2024-01-15T07:52:49;96604.97;;;-4.46;59.70
43741;BME280;29352;48.708;9.290;2024-01-15T07:55:14;96601.75;;;-4.40;59.44
43741;BME280;29352;48.708;9.290;2024-01-15T07:57:40;96609.78;;;-4.33;59.56
43741;BME280;29352;48.708;9.290;2024-01-15T08:00:06;96617.38;;;-4.66;59.82
43741;BME280;29352;48.708;9.290;2024-01-15T08:02:32;96616.88;;;-4.17;58.66
43741;BME280;29352;48.708;9.290;2024-01-15T08:04:58;96618.53;;;-4.42;59.29
43741;BME280;29352;48.708;9.290;2024-01-15T08:07:24;96614.72;;;-4.48;59.14
43741;BME280;29352;48.708;9.290;2024-01-15T08:09:51;96628.09;;;-4.25;58.54
43741;BME280;29352;48.708;9.290;2024-01-15T08:12:17;96622.78;;;-3.81;57.78
43741;BME280;29352;48.708;9.290;2024-01-15T08:14:43;96626.69;;;-4.11;58.59
43741;BME280;29352;48.708;9.290;2024-01-15T08:17:09;96625.16;;;-3.96;58.15
43741;BME280;29352;48.708;9.290;2024-01-15T08:19:34;96624.16;;;-3.69;57.47
43741;BME280;29352;48.708;9.290;2024-01-15T08:22:00;96626.97;;;-3.96;57.84
43741;BME280;29352;48.708;9.290;2024-01-15T08:24:25;96623.25;;;-3.86;57.44
43741;BME280;29352;48.708;9.290;2024-01-15T08:26:51;96625.47;;;-3.65;57.05
43741;BME280;29352;48.708;9.290;2024-01-15T08:29:18;96618.47;;;-3.64;56.89
43741;BME280;29352;48.708;9.290;2024-01-15T08:31:46;96626.47;;;-3.49;56.77
43741;BME280;29352;48.708;9.290;2024-01-15T08:34:11;96621.56;;;-3.95;57.21
43741;BME280;29352;48.708;9.290;2024-01-15T08:36:37;96627.34;;;-4.09;57.60
43741;BME280;29352;48.708;9.290;2024-01-15T08:39:02;96624.97;;;-4.02;57.58
43741;BME280;29352;48.708;9.290;2024-01-15T08:41:31;96617.78;;;-3.66;57.23
43741;BME280;29352;48.708;9.290;2024-01-15T08:43:59;96620.44;;;-3.58;57.21
43741;BME280;29352;48.708;9.290;2024-01-15T08:46:26;96619.84;;;-3.44;56.56
43741;BME280;29352;48.708;9.290;2024-01-15T08:48:53;96615.22;;;-3.58;56.84
43741;BME280;29352;48.708;9.290;2024-01-15T08:51:18;96626.66;;;-3.43;56.68
43741;BME280;29352;48.708;9.290;2024-01-15T08:53:44;96627.22;;;-3.15;56.56
43741;BME280;29352;48.708;9.290;2024-01-15T08:56:11;96631.31;;;-3.12;56.01
43741;BME280;29352;48.708;9.290;2024-01-15T08:58:36;96636.78;;;-3.40;56.54
43741;BME280;29352;48.708;9.290;2024-01-15T09:01:02;96634.22;;;-3.31;56.20
43741;BME280;29352;48.708;9.290;2024-01-15T09:03:27;96636.28;;;-3.51;56.33
43741;BME280;29352;48.708;9.290;2024-01-15T09:05:54;96636.84;;;-3.31;56.32
43741;BME280;29352;48.708;9.290;2024-01-15T09:08:20;96635.22;;;-3.24;55.98
43741;BME280;29352;48.708;9.290;2024-01-15T09:10:47;96638.53;;;-2.90;55.33
43741;BME280;29352;48.708;9.290;2024-01-15T09:13:12;96639.78;;;-3.26;56.02
43741;BME280;29352;48.708;9.290;2024-01-15T09:15:38;96627.53;;;-3.34;55.41
43741;BME280;29352;48.708;9.290;2024-01-15T09:18:04;96628.38;;;-3.01;55.34
43741;BME280;29352;48.708;9.290;2024-01-15T09:20:30;96623.03;;;-2.91;55.27
43741;BME280;29352;48.708;9.290;2024-01-15T09:22:56;96622.19;;;-3.16;55.31
43741;BME280;29352;48.708;9.290;2024-01-15T09:25:21;96615.03;;;-2.98;55.33
43741;BME280;29352;48.708;9.290;2024-01-15T09:27:47;96607.50;;;-3.17;55.20
43741;BME280;29352;48.708;9.290;2024-01-15T09:30:13;96604.22;;;-3.27;55.40
43741;BME280;29352;48.708;9.290;2024-01-15T09:32:41;96601.97;;;-3.06;55.33
43741;BME280;29352;48.708;9.290;2024-01-15T09:35:07;96604.56;;;-3.14;54.94
43741;BME280;29352;48.708;9.290;2024-01-15T09:37:34;96605.16;;;-3.45;54.91
43741;BME280;29352;48.708;9.290;2024-01-15T09:39:59;96595.22;;;-3.41;55.37
43741;BME280;29352;48.708;9.290;2024-01-15T09:42:25;96600.16;;;-3.14;55.36
43741;BME280;29352;48.708;9.290;2024-01-15T09:44:52;96590.72;;;-3.06;54.75
43741;BME280;29352;48.708;9.290;2024-01-15T09:47:19;96575.53;;;-3.03;54.85
43741;BME280;29352;48.708;9.290;2024-01-15T09:49:47;96594.28;;;-3.07;54.73
43741;BME280;29352;48.708;9.290;2024-01-15T09:52:15;96594.13;;;-3.14;54.84
43741;BME280;29352;48.708;9.290;2024-01-15T09:54:46;96596.41;;;-2.95;54.61
43741;BME280;29352;48.708;9.290;2024-01-15T09:57:12;96588.09;;;-2.98;54.73
43741;BME280;29352;48.708;9.290;2024-01-15T09:59:42;96592.19;;;-2.88;54.57
43741;BME280;29352;48.708;9.290;2024-01-15T10:02:11;96588.91;;;-3.06;55.15
43741;BME280;29352;48.708;9.290;2024-01-15T10:04:42;96588.56;;;-3.19;55.26
43741;BME280;29352;48.708;9.290;2024-01-15T10:07:15;96576.50;;;-2.88;54.82
43741;BME280;29352;48.708;9.290;2024-01-15T10:09:42;96579.78;;;-2.69;54.24
43741;BME280;29352;48.708;9.290;2024-01-15T10:12:10;96580.72;;;-2.38;54.06
43741;BME280;29352;48.708;9.290;2024-01-15T10:14:36;96580.75;;;-2.62;54.48
43741;BME280;29352;48.708;9.290;2024-01-15T10:17:12;96586.63;;;-2.60;54.35
43741;BME280;29352;48.708;9.290;2024-01-15T10:19:40;96564.56;;;-2.41;54.08
43741;BME280;29352;48.708;9.290;2024-01-15T10:22:08;96577.78;;;-2.43;53.91
43741;BME280;29352;48.708;9.290;2024-01-15T10:24:36;96574.56;;;-2.77;54.62
43741;BME280;29352;48.708;9.290;2024-01-15T10:27:07;96565.69;;;-2.27;53.86
43741;BME280;29352;48.708;9.290;2024-01-15T10:29:34;96573.41;;;-2.67;54.54
43741;BME280;29352;48.708;9.290;2024-01-15T10:32:00;96561.00;;;-2.48;54.49
43741;BME280;29352;48.708;9.290;2024-01-15T10:34:26;96559.53;;;-2.92;54.90
43741;BME280;29352;48.708;9.290;2024-01-15T10:36:52;96562.16;;;-2.75;54.71
43741;BME280;29352;48.708;9.290;2024-01-15T10:39:22;96559.88;;;-2.87;54.32
43741;BME280;29352;48.708;9.290;2024-01-15T10:41:49;96553.59;;;-2.37;54.19
43741;BME280;29352;48.708;9.290;2024-01-15T10:44:16;96544.34;;;-2.64;54.29
43741;BME280;29352;48.708;9.290;2024-01-15T10:46:43;96551.06;;;-2.77;55.22
43741;BME280;29352;48.708;9.290;2024-01-15T10:49:11;96550.75;;;-2.82;55.27
43741;BME280;29352;48.708;9.290;2024-01-15T10:51:39;96545.19;;;-2.79;55.22
43741;BME280;29352;48.708;9.290;2024-01-15T10:54:09;96541.59;;;-2.78;55.19
43741;BME280;29352;48.708;9.290;2024-01-15T10:56:36;96542.72;;;-2.81;55.34
43741;BME280;29352;48.708;9.290;2024-01-15T10:59:03;96527.09;;;-2.25;54.82
43741;BME280;29352;48.708;9.290;2024-01-15T11:01:31;96537.50;;;-2.73;55.14
43741;BME280;29352;48.708;9.290;2024-01-15T11:03:59;96532.06;;;-2.47;54.88
43741;BME280;29352;48.708;9.290;2024-01-15T11:06:27;96532.78;;;-2.86;55.79
43741;BME280;29352;48.708;9.290;2024-01-15T11:09:07;96535.69;;;-2.64;55.44
43741;BME280;29352;48.708;9.290;2024-01-15T11:11:36;96537.25;;;-2.30;55.04
43741;BME280;29352;48.708;9.290;2024-01-15T11:14:06;96536.69;;;-2.81;55.91
43741;BME280;29352;48.708;9.290;2024-01-15T11:16:55;96531.66;;;-2.83;56.09
43741;BME280;29352;48.708;9.290;2024-01-15T11:19:22;96534.69;;;-2.47;55.68
43741;BME280;29352;48.708;9.290;2024-01-15T11:21:47;96523.63;;;-2.65;56.31
43741;BME280;29352;48.708;9.290;2024-01-15T11:24:39;96515.31;;;-3.01;57.33
43741;BME280;29352;48.708;9.290;2024-01-15T11:27:07;96518.09;;;-2.78;56.60
43741;BME280;29352;48.708;9.290;2024-01-15T11:29:37;96514.97;;;-2.66;56.84
43741;BME280;29352;48.708;9.290;2024-01-15T11:37:18;96512.22;;;-2.80;57.30
43741;BME280;29352;48.708;9.290;2024-01-15T11:39:45;96496.06;;;-3.33;57.64
43741;BME280;29352;48.708;9.290;2024-01-15T11:42:13;96504.88;;;-2.85;57.16
43741;BME280;29352;48.708;9.290;2024-01-15T11:44:40;96503.91;;;-2.92;57.28
43741;BME280;29352;48.708;9.290;2024-01-15T11:47:11;96513.16;;;-2.73;57.25
43741;BME280;29352;48.708;9.290;2024-01-15T11:49:58;96500.41;;;-2.52;56.98
43741;BME280;29352;48.708;9.290;2024-01-15T11:52:33;96508.00;;;-2.90;58.10
43741;BME280;29352;48.708;9.290;2024-01-15T11:57:46;96515.84;;;-3.14;59.12
43741;BME280;29352;48.708;9.290;2024-01-15T12:00:15;96511.91;;;-3.18;59.06
43741;BME280;29352;48.708;9.290;2024-01-15T12:02:42;96509.41;;;-2.63;58.26
43741;BME280;29352;48.708;9.290;2024-01-15T12:05:10;96517.38;;;-2.48;58.19
43741;BME280;29352;48.708;9.290;2024-01-15T12:07:44;96520.88;;;-3.04;58.71
43741;BME280;29352;48.708;9.290;2024-01-15T12:10:21;96519.25;;;-3.05;59.16
43741;BME280;29352;48.708;9.290;2024-01-15T12:12:59;96517.13;;;-2.86;58.87
43741;BME280;29352;48.708;9.290;2024-01-15T12:15:31;96524.13;;;-3.35;60.32
43741;BME280;29352;48.708;9.290;2024-01-15T12:18:02;96519.84;;;-3.52;63.07
43741;BME280;29352;48.708;9.290;2024-01-15T12:20:29;96521.16;;;-3.57;64.25
43741;BME280;29352;48.708;9.290;2024-01-15T12:22:56;96520.69;;;-3.36;64.37
43741;BME280;29352;48.708;9.290;2024-01-15T12:25:26;96518.44;;;-3.06;64.14
43741;BME280;29352;48.708;9.290;2024-01-15T12:27:53;96525.28;;;-3.38;64.78
43741;BME280;29352;48.708;9.290;2024-01-15T12:30:19;96529.50;;;-3.28;64.53
43741;BME280;29352;48.708;9.290;2024-01-15T12:32:46;96524.78;;;-3.41;65.80
43741;BME280;29352;48.708;9.290;2024-01-15T12:35:13;96524.91;;;-3.59;66.08
43741;BME280;29352;48.708;9.290;2024-01-15T12:37:41;96529.34;;;-3.19;65.74
43741;BME280;29352;48.708;9.290;2024-01-15T12:40:10;96525.78;;;-3.18;66.30
43741;BME280;29352;48.708;9.290;2024-01-15T12:42:37;96527.25;;;-2.99;66.12
43741;BME280;29352;48.708;9.290;2024-01-15T12:45:05;96532.13;;;-3.20;66.70
43741;BME280;29352;48.708;9.290;2024-01-15T12:47:32;96536.53;;;-3.29;67.32
43741;BME280;29352;48.708;9.290;2024-01-15T12:49:58;96532.25;;;-3.46;67.69
43741;BME280;29352;48.708;9.290;2024-01-15T12:52:27;96535.50;;;-3.52;68.42
43741;BME280;29352;48.708;9.290;2024-01-15T12:54:54;96545.47;;;-3.40;68.57
43741;BME280;29352;48.708;9.290;2024-01-15T12:57:20;96543.03;;;-4.00;80.07
43741;BME280;29352;48.708;9.290;2024-01-15T12:59:47;96544.97;;;-3.51;70.74
43741;BME280;29352;48.708;9.290;2024-01-15T13:02:13;96550.38;;;-3.37;70.21
43741;BME280;29352;48.708;9.290;2024-01-15T13:04:39;96537.34;;;-3.37;70.35